British Ruby — 2AKI2 — position and weather

sailwx.info

Track history (hours):
 
Tides and Currents Weather Stations Pressure Air Temp Water Temp Dewpoint Dewpoint Depression Visibility Wind Speed Wind Dir Waves Ship Positions

British Ruby

Last reported at 2014-Nov-25 22:00 UTC. Time now 2014-Nov-27 00:14 UTC.
Position N 38°30' E 005°12'.

Length 288 m; draft 11.1 m.

Type: Ship (hazmat cat C). MMSI: 235060453.

Wind from 150 at 9 knots

Barometer 1017.1 mb
Air temperature 19.6 ° C
Visibility: greater than 10.8 NM
Dewpoint 16.3 ° C
Water temperature 20.6 ° C

Date/timePositionNaut miles runAvg speedWind from/ knotsBaromVisibWave heightAir tempDewpointWater temp
2014-Nov-25 22:00N 38°30' E 005°12'5315.2 150 / 91017.110.8 19.616.320.6
2014-Nov-25 18:31N 38°44' E 004°07'2116.2
2014-Nov-25 17:13N 38°50' E 003°41'1015.9
2014-Nov-25 16:33N 38°53' E 003°28'1615.8
2014-Nov-25 15:33N 38°57' E 003°08'1615.9
2014-Nov-25 14:33N 39°01' E 002°48'1615.8
2014-Nov-25 13:33N 39°05' E 002°29'1615.6
2014-Nov-25 12:33N 39°09' E 002°10'1515.3
2014-Nov-25 11:33N 39°11' E 001°50'1515.3
2014-Nov-25 10:33N 39°17' E 001°32'1615.9
2014-Nov-25 09:31N 39°21' E 001°11'1515.8
2014-Nov-25 08:33N 39°25' E 000°52'3915.5
2014-Nov-25 06:03N 39°35' E 000°04'714.3
2014-Nov-25 05:32N 39°36' W 000°06'6 5.4
2014-Nov-25 04:28N 39°38' W 000°13'  
2014-Nov-22 08:33N 39°38' W 000°13'2 2.4
2014-Nov-22 07:32N 39°36' W 000°11'  
2014-Nov-18 21:31N 39°35' W 000°09'0 0.0
2014-Nov-18 20:07N 39°35' W 000°09'0 0.0
2014-Nov-18 19:31N 39°35' W 000°09'0 0.0
2014-Nov-18 18:31N 39°36' W 000°09'0 0.0
2014-Nov-18 17:31N 39°36' W 000°09'0 0.0
2014-Nov-18 14:31N 39°35' W 000°09'  
Track history (hours):
 
Tides and Currents Weather Stations Pressure Air Temp Water Temp Dewpoint Dewpoint Depression Visibility Wind Speed Wind Dir Waves Ship Positions

British Ruby

Last reported at 2014-Nov-25 22:00 UTC. Time now 2014-Nov-27 00:14 UTC.
Position N 38°30' E 005°12'.

Length 288 m; draft 11.1 m.

Type: Ship (hazmat cat C). MMSI: 235060453.

Wind from 150 at 9 knots

Barometer 1017.1 mb
Air temperature 19.6 ° C
Visibility: greater than 10.8 NM
Dewpoint 16.3 ° C
Water temperature 20.6 ° C

Date/timePositionNaut miles runAvg speedWind from/ knotsBaromVisibWave heightAir tempDewpointWater temp
2014-Nov-25 22:00N 38°30' E 005°12'5315.2 150 / 91017.110.8 19.616.320.6
2014-Nov-25 18:31N 38°44' E 004°07'2116.2
2014-Nov-25 17:13N 38°50' E 003°41'1015.9
2014-Nov-25 16:33N 38°53' E 003°28'1615.8
2014-Nov-25 15:33N 38°57' E 003°08'1615.9
2014-Nov-25 14:33N 39°01' E 002°48'1615.8
2014-Nov-25 13:33N 39°05' E 002°29'1615.6
2014-Nov-25 12:33N 39°09' E 002°10'1515.3
2014-Nov-25 11:33N 39°11' E 001°50'1515.3
2014-Nov-25 10:33N 39°17' E 001°32'1615.9
2014-Nov-25 09:31N 39°21' E 001°11'1515.8
2014-Nov-25 08:33N 39°25' E 000°52'3915.5
2014-Nov-25 06:03N 39°35' E 000°04'714.3
2014-Nov-25 05:32N 39°36' W 000°06'6 5.4
2014-Nov-25 04:28N 39°38' W 000°13'  
2014-Nov-22 08:33N 39°38' W 000°13'2 2.4
2014-Nov-22 07:32N 39°36' W 000°11'  
2014-Nov-18 21:31N 39°35' W 000°09'0 0.0
2014-Nov-18 20:07N 39°35' W 000°09'0 0.0
2014-Nov-18 19:31N 39°35' W 000°09'0 0.0
2014-Nov-18 18:31N 39°36' W 000°09'0 0.0
2014-Nov-18 17:31N 39°36' W 000°09'0 0.0
2014-Nov-18 14:31N 39°35' W 000°09'  

Dump ship's entire track history